X  Lukk Metar værinformasjon om luftfart     ENRY Moss Airport, Rygge
Temperatur
1°C Temperatur
-2°C Duggpunkt
81% Luftfuktighet



Vind
2 M/S
5 MPT
8 KM/T
4 KNP



40°
Nåværende forhold

Klart Klart
Trykk 1009.92 (hPa) - 29.82 (inHg)
Sikt 0 (mil) - 0 (km)
Flyplass
Flyplass-kode ENRY

Plassering: Moss Airport, Rygge
Avstand: 12 (km)

Metar:
ENRY 170350Z AUTO 04004KT 010V070 9999NDV NCD 01/M02 Q1010

Tid: 17-10-2021 05:50 CEST